Falconia — H3QI — position and weather

sailwx.info

Track history (hours):
 
Tides and Currents Weather Stations Pressure Air Temp Water Temp Dewpoint Dewpoint Depression Visibility Wind Speed Wind Dir Waves Ship Positions

Falconia

Last reported at 2016-Jul-31 20:30 UTC. Time now 2016-Sep-30 18:34 UTC.
Position N 01°54' E 102°23'.
Warning: this ship's position is months out of date.

Length 88 m; draft 3.8 m.

Type: Cargo ship. MMSI: 353620000.

Date/timePositionNaut miles runAvg speedWind from/ knotsBaromVisibWave heightAir tempDewpointWater temp
2016-Jul-31 20:30N 01°54' E 102°23'1011.1
2016-Jul-31 19:33N 01°50' E 102°32'1311.8
2016-Jul-31 18:29N 01°45' E 102°44'7210.1
2016-Jul-31 11:19N 01°10' E 103°47'810.8
2016-Jul-31 10:33N 01°13' E 103°54'1110.5
2016-Jul-31 09:33N 01°16' E 104°05'3 0.2
2016-Jul-30 18:15N 01°16' E 104°08'5 5.9
2016-Jul-30 17:29N 01°20' E 104°05'12 0.3
2016-Jul-28 20:15N 01°26' E 103°54'0 0.0
2016-Jul-28 15:09N 01°26' E 103°54'2 0.3
2016-Jul-28 09:33N 01°25' E 103°56'10 8.4
2016-Jul-28 08:20N 01°20' E 104°05'  
2016-Jul-22 14:33N 22°08' E 113°48'3610.8
2016-Jul-22 11:15N 22°43' E 113°41'911.7
2016-Jul-22 10:30N 22°50' E 113°35'10 9.9
2016-Jul-22 09:32N 22°59' E 113°31'8 8.5
2016-Jul-22 08:33N 23°05' E 113°26'1 1.0
2016-Jul-22 07:26N 23°05' E 113°25'0 0.0
2016-Jul-22 04:26N 23°05' E 113°25'0 0.0
2016-Jul-22 03:14N 23°05' E 113°25'0 0.3
2016-Jul-22 02:26N 23°05' E 113°25'0 0.2
2016-Jul-22 01:32N 23°05' E 113°25'0 0.0
2016-Jul-22 00:32N 23°05' E 113°25'0 0.0
2016-Jul-21 23:32N 23°05' E 113°25'0 0.0
2016-Jul-21 22:32N 23°05' E 113°25'0 0.0
2016-Jul-21 21:32N 23°05' E 113°25'0 0.0
2016-Jul-21 20:32N 23°05' E 113°25'  
Track history (hours):
 
Tides and Currents Weather Stations Pressure Air Temp Water Temp Dewpoint Dewpoint Depression Visibility Wind Speed Wind Dir Waves Ship Positions

Falconia

Last reported at 2016-Jul-31 20:30 UTC. Time now 2016-Sep-30 18:34 UTC.
Position N 01°54' E 102°23'.
Warning: this ship's position is months out of date.

Length 88 m; draft 3.8 m.

Type: Cargo ship. MMSI: 353620000.

Date/timePositionNaut miles runAvg speedWind from/ knotsBaromVisibWave heightAir tempDewpointWater temp
2016-Jul-31 20:30N 01°54' E 102°23'1011.1
2016-Jul-31 19:33N 01°50' E 102°32'1311.8
2016-Jul-31 18:29N 01°45' E 102°44'7210.1
2016-Jul-31 11:19N 01°10' E 103°47'810.8
2016-Jul-31 10:33N 01°13' E 103°54'1110.5
2016-Jul-31 09:33N 01°16' E 104°05'3 0.2
2016-Jul-30 18:15N 01°16' E 104°08'5 5.9
2016-Jul-30 17:29N 01°20' E 104°05'12 0.3
2016-Jul-28 20:15N 01°26' E 103°54'0 0.0
2016-Jul-28 15:09N 01°26' E 103°54'2 0.3
2016-Jul-28 09:33N 01°25' E 103°56'10 8.4
2016-Jul-28 08:20N 01°20' E 104°05'  
2016-Jul-22 14:33N 22°08' E 113°48'3610.8
2016-Jul-22 11:15N 22°43' E 113°41'911.7
2016-Jul-22 10:30N 22°50' E 113°35'10 9.9
2016-Jul-22 09:32N 22°59' E 113°31'8 8.5
2016-Jul-22 08:33N 23°05' E 113°26'1 1.0
2016-Jul-22 07:26N 23°05' E 113°25'0 0.0
2016-Jul-22 04:26N 23°05' E 113°25'0 0.0
2016-Jul-22 03:14N 23°05' E 113°25'0 0.3
2016-Jul-22 02:26N 23°05' E 113°25'0 0.2
2016-Jul-22 01:32N 23°05' E 113°25'0 0.0
2016-Jul-22 00:32N 23°05' E 113°25'0 0.0
2016-Jul-21 23:32N 23°05' E 113°25'0 0.0
2016-Jul-21 22:32N 23°05' E 113°25'0 0.0
2016-Jul-21 21:32N 23°05' E 113°25'0 0.0
2016-Jul-21 20:32N 23°05' E 113°25'  

Dump ship's entire track history